sensor_id;sensor_type;location;lat;lon;timestamp;P1;durP1;ratioP1;P2;durP2;ratioP2
64295;SDS011;51082;38.236;15.432;2022-08-03T00:00:46;2.47;;;0.88;;
64295;SDS011;51082;38.236;15.432;2022-08-03T00:01:49;2.00;;;0.80;;
64295;SDS011;51082;38.236;15.432;2022-08-03T00:02:50;0.25;;;0.25;;
64295;SDS011;51082;38.236;15.432;2022-08-03T00:03:53;0.63;;;0.47;;
64295;SDS011;51082;38.236;15.432;2022-08-03T00:04:56;0.95;;;0.85;;
64295;SDS011;51082;38.236;15.432;2022-08-03T00:05:59;0.95;;;0.85;;
64295;SDS011;51082;38.236;15.432;2022-08-03T00:07:01;0.60;;;0.60;;
64295;SDS011;51082;38.236;15.432;2022-08-03T00:08:03;0.70;;;0.70;;
64295;SDS011;51082;38.236;15.432;2022-08-03T00:09:05;1.02;;;0.90;;
64295;SDS011;51082;38.236;15.432;2022-08-03T00:10:08;0.60;;;0.60;;
64295;SDS011;51082;38.236;15.432;2022-08-03T00:11:10;0.35;;;0.35;;
64295;SDS011;51082;38.236;15.432;2022-08-03T00:12:13;1.50;;;0.80;;
64295;SDS011;51082;38.236;15.432;2022-08-03T00:13:14;0.65;;;0.65;;
64295;SDS011;51082;38.236;15.432;2022-08-03T00:14:19;0.60;;;0.60;;
64295;SDS011;51082;38.236;15.432;2022-08-03T00:15:21;1.45;;;0.47;;
64295;SDS011;51082;38.236;15.432;2022-08-03T00:16:23;0.60;;;0.50;;
64295;SDS011;51082;38.236;15.432;2022-08-03T00:17:26;0.80;;;0.80;;
64295;SDS011;51082;38.236;15.432;2022-08-03T00:18:28;0.93;;;0.85;;
64295;SDS011;51082;38.236;15.432;2022-08-03T00:19:31;0.40;;;0.40;;
64295;SDS011;51082;38.236;15.432;2022-08-03T00:20:34;3.92;;;1.00;;
64295;SDS011;51082;38.236;15.432;2022-08-03T00:21:37;0.63;;;0.63;;
64295;SDS011;51082;38.236;15.432;2022-08-03T00:22:39;0.60;;;0.60;;
64295;SDS011;51082;38.236;15.432;2022-08-03T00:23:41;0.82;;;0.70;;
64295;SDS011;51082;38.236;15.432;2022-08-03T00:24:43;0.70;;;0.70;;
64295;SDS011;51082;38.236;15.432;2022-08-03T00:25:46;0.43;;;0.43;;
64295;SDS011;51082;38.236;15.432;2022-08-03T00:26:47;0.80;;;0.80;;
64295;SDS011;51082;38.236;15.432;2022-08-03T00:27:50;1.70;;;0.93;;
64295;SDS011;51082;38.236;15.432;2022-08-03T00:28:52;0.45;;;0.45;;
64295;SDS011;51082;38.236;15.432;2022-08-03T00:29:54;0.40;;;0.40;;
64295;SDS011;51082;38.236;15.432;2022-08-03T00:30:56;0.70;;;0.70;;
64295;SDS011;51082;38.236;15.432;2022-08-03T00:31:58;0.70;;;0.70;;
64295;SDS011;51082;38.236;15.432;2022-08-03T00:33:00;1.13;;;0.93;;
64295;SDS011;51082;38.236;15.432;2022-08-03T00:34:03;0.60;;;0.60;;
64295;SDS011;51082;38.236;15.432;2022-08-03T00:35:05;2.15;;;0.80;;
64295;SDS011;51082;38.236;15.432;2022-08-03T00:36:10;0.63;;;0.63;;
64295;SDS011;51082;38.236;15.432;2022-08-03T00:37:11;0.68;;;0.50;;
64295;SDS011;51082;38.236;15.432;2022-08-03T00:38:14;0.35;;;0.35;;
64295;SDS011;51082;38.236;15.432;2022-08-03T00:39:15;0.40;;;0.40;;
64295;SDS011;51082;38.236;15.432;2022-08-03T00:40:18;0.68;;;0.68;;
64295;SDS011;51082;38.236;15.432;2022-08-03T00:41:20;0.55;;;0.50;;
64295;SDS011;51082;38.236;15.432;2022-08-03T00:42:23;2.85;;;0.70;;
64295;SDS011;51082;38.236;15.432;2022-08-03T00:43:25;0.68;;;0.68;;
64295;SDS011;51082;38.236;15.432;2022-08-03T00:44:27;1.00;;;0.63;;
64295;SDS011;51082;38.236;15.432;2022-08-03T00:45:30;1.52;;;0.70;;
64295;SDS011;51082;38.236;15.432;2022-08-03T00:46:34;0.55;;;0.52;;
64295;SDS011;51082;38.236;15.432;2022-08-03T00:47:37;1.25;;;0.75;;
64295;SDS011;51082;38.236;15.432;2022-08-03T00:48:39;0.60;;;0.55;;
64295;SDS011;51082;38.236;15.432;2022-08-03T00:49:41;1.00;;;0.73;;
64295;SDS011;51082;38.236;15.432;2022-08-03T00:50:43;1.38;;;0.75;;
64295;SDS011;51082;38.236;15.432;2022-08-03T00:51:48;0.85;;;0.75;;
64295;SDS011;51082;38.236;15.432;2022-08-03T00:52:51;1.08;;;0.80;;
64295;SDS011;51082;38.236;15.432;2022-08-03T00:53:54;0.98;;;0.90;;
64295;SDS011;51082;38.236;15.432;2022-08-03T00:54:56;1.02;;;0.80;;
64295;SDS011;51082;38.236;15.432;2022-08-03T00:55:59;0.63;;;0.63;;
64295;SDS011;51082;38.236;15.432;2022-08-03T00:57:01;1.23;;;0.70;;
64295;SDS011;51082;38.236;15.432;2022-08-03T00:58:03;1.02;;;0.90;;
64295;SDS011;51082;38.236;15.432;2022-08-03T00:59:08;0.60;;;0.60;;
64295;SDS011;51082;38.236;15.432;2022-08-03T01:00:11;0.55;;;0.55;;
64295;SDS011;51082;38.236;15.432;2022-08-03T01:01:15;0.60;;;0.60;;
64295;SDS011;51082;38.236;15.432;2022-08-03T01:02:17;0.77;;;0.70;;
64295;SDS011;51082;38.236;15.432;2022-08-03T01:03:20;0.40;;;0.40;;
64295;SDS011;51082;38.236;15.432;2022-08-03T01:04:21;0.73;;;0.47;;
64295;SDS011;51082;38.236;15.432;2022-08-03T01:05:24;5.50;;;0.85;;
64295;SDS011;51082;38.236;15.432;2022-08-03T01:06:28;0.70;;;0.70;;
64295;SDS011;51082;38.236;15.432;2022-08-03T01:07:42;0.75;;;0.75;;
64295;SDS011;51082;38.236;15.432;2022-08-03T01:08:53;0.95;;;0.70;;
64295;SDS011;51082;38.236;15.432;2022-08-03T01:10:04;0.50;;;0.50;;
64295;SDS011;51082;38.236;15.432;2022-08-03T01:11:11;2.47;;;0.82;;
64295;SDS011;51082;38.236;15.432;2022-08-03T01:12:21;0.70;;;0.70;;
64295;SDS011;51082;38.236;15.432;2022-08-03T01:13:30;0.60;;;0.60;;
64295;SDS011;51082;38.236;15.432;2022-08-03T01:14:40;3.05;;;0.77;;
64295;SDS011;51082;38.236;15.432;2022-08-03T01:15:52;0.50;;;0.50;;
64295;SDS011;51082;38.236;15.432;2022-08-03T01:17:01;1.10;;;0.80;;
64295;SDS011;51082;38.236;15.432;2022-08-03T01:18:08;0.60;;;0.60;;
64295;SDS011;51082;38.236;15.432;2022-08-03T01:19:20;0.80;;;0.80;;
64295;SDS011;51082;38.236;15.432;2022-08-03T01:20:37;1.48;;;0.75;;
64295;SDS011;51082;38.236;15.432;2022-08-03T01:21:46;1.25;;;0.70;;
64295;SDS011;51082;38.236;15.432;2022-08-03T01:24:06;0.82;;;0.60;;
64295;SDS011;51082;38.236;15.432;2022-08-03T01:25:25;0.65;;;0.65;;
64295;SDS011;51082;38.236;15.432;2022-08-03T01:26:46;0.73;;;0.60;;
64295;SDS011;51082;38.236;15.432;2022-08-03T01:27:57;1.45;;;0.70;;
64295;SDS011;51082;38.236;15.432;2022-08-03T01:29:13;1.42;;;0.70;;
64295;SDS011;51082;38.236;15.432;2022-08-03T01:30:29;0.75;;;0.70;;
64295;SDS011;51082;38.236;15.432;2022-08-03T01:31:35;0.73;;;0.73;;
64295;SDS011;51082;38.236;15.432;2022-08-03T01:32:43;0.50;;;0.50;;
64295;SDS011;51082;38.236;15.432;2022-08-03T01:33:49;0.60;;;0.52;;
64295;SDS011;51082;38.236;15.432;2022-08-03T01:34:58;2.97;;;0.80;;
64295;SDS011;51082;38.236;15.432;2022-08-03T01:36:04;0.60;;;0.60;;
64295;SDS011;51082;38.236;15.432;2022-08-03T01:37:08;0.80;;;0.60;;
64295;SDS011;51082;38.236;15.432;2022-08-03T01:38:12;0.70;;;0.70;;
64295;SDS011;51082;38.236;15.432;2022-08-03T01:39:18;0.77;;;0.77;;
64295;SDS011;51082;38.236;15.432;2022-08-03T01:40:21;0.70;;;0.70;;
64295;SDS011;51082;38.236;15.432;2022-08-03T01:41:28;1.08;;;0.73;;
64295;SDS011;51082;38.236;15.432;2022-08-03T01:42:33;0.73;;;0.73;;
64295;SDS011;51082;38.236;15.432;2022-08-03T01:43:39;1.52;;;0.93;;
64295;SDS011;51082;38.236;15.432;2022-08-03T01:44:42;1.17;;;0.70;;
64295;SDS011;51082;38.236;15.432;2022-08-03T01:45:50;0.68;;;0.68;;
64295;SDS011;51082;38.236;15.432;2022-08-03T01:46:52;2.30;;;0.60;;
64295;SDS011;51082;38.236;15.432;2022-08-03T01:47:56;0.52;;;0.52;;
64295;SDS011;51082;38.236;15.432;2022-08-03T01:48:58;0.70;;;0.43;;
64295;SDS011;51082;38.236;15.432;2022-08-03T01:50:04;0.88;;;0.70;;
64295;SDS011;51082;38.236;15.432;2022-08-03T01:51:08;2.60;;;1.05;;
64295;SDS011;51082;38.236;15.432;2022-08-03T01:52:12;1.02;;;0.90;;
64295;SDS011;51082;38.236;15.432;2022-08-03T01:53:17;0.93;;;0.60;;
64295;SDS011;51082;38.236;15.432;2022-08-03T01:54:21;1.88;;;0.90;;
64295;SDS011;51082;38.236;15.432;2022-08-03T01:55:24;0.80;;;0.80;;
64295;SDS011;51082;38.236;15.432;2022-08-03T01:56:28;0.88;;;0.50;;
64295;SDS011;51082;38.236;15.432;2022-08-03T01:57:31;0.70;;;0.70;;
64295;SDS011;51082;38.236;15.432;2022-08-03T01:58:36;0.80;;;0.68;;
64295;SDS011;51082;38.236;15.432;2022-08-03T01:59:39;0.52;;;0.52;;
64295;SDS011;51082;38.236;15.432;2022-08-03T02:00:43;2.78;;;0.80;;
64295;SDS011;51082;38.236;15.432;2022-08-03T02:01:48;0.70;;;0.70;;
64295;SDS011;51082;38.236;15.432;2022-08-03T02:02:52;0.90;;;0.85;;
64295;SDS011;51082;38.236;15.432;2022-08-03T02:03:55;0.68;;;0.68;;
64295;SDS011;51082;38.236;15.432;2022-08-03T02:05:00;0.70;;;0.70;;
64295;SDS011;51082;38.236;15.432;2022-08-03T02:06:05;1.55;;;0.80;;
64295;SDS011;51082;38.236;15.432;2022-08-03T02:07:10;0.90;;;0.90;;
64295;SDS011;51082;38.236;15.432;2022-08-03T02:08:14;0.60;;;0.60;;
64295;SDS011;51082;38.236;15.432;2022-08-03T02:09:19;0.45;;;0.45;;
64295;SDS011;51082;38.236;15.432;2022-08-03T02:10:22;1.95;;;0.98;;
64295;SDS011;51082;38.236;15.432;2022-08-03T02:11:25;0.52;;;0.52;;
64295;SDS011;51082;38.236;15.432;2022-08-03T02:12:28;0.57;;;0.55;;
64295;SDS011;51082;38.236;15.432;2022-08-03T02:13:33;0.60;;;0.60;;
64295;SDS011;51082;38.236;15.432;2022-08-03T02:14:35;0.98;;;0.60;;
64295;SDS011;51082;38.236;15.432;2022-08-03T02:15:40;1.13;;;0.90;;
64295;SDS011;51082;38.236;15.432;2022-08-03T02:16:43;3.92;;;0.82;;
64295;SDS011;51082;38.236;15.432;2022-08-03T02:17:47;0.65;;;0.60;;
64295;SDS011;51082;38.236;15.432;2022-08-03T02:18:50;4.10;;;0.80;;
64295;SDS011;51082;38.236;15.432;2022-08-03T02:19:55;0.73;;;0.60;;
64295;SDS011;51082;38.236;15.432;2022-08-03T02:20:59;0.80;;;0.80;;
64295;SDS011;51082;38.236;15.432;2022-08-03T02:22:04;0.90;;;0.82;;
64295;SDS011;51082;38.236;15.432;2022-08-03T02:23:09;1.27;;;0.82;;
64295;SDS011;51082;38.236;15.432;2022-08-03T02:24:12;0.47;;;0.47;;
64295;SDS011;51082;38.236;15.432;2022-08-03T02:25:14;0.70;;;0.50;;
64295;SDS011;51082;38.236;15.432;2022-08-03T02:26:17;0.50;;;0.50;;
64295;SDS011;51082;38.236;15.432;2022-08-03T02:27:21;1.67;;;0.95;;
64295;SDS011;51082;38.236;15.432;2022-08-03T02:28:29;0.95;;;0.73;;
64295;SDS011;51082;38.236;15.432;2022-08-03T02:29:34;0.60;;;0.60;;
64295;SDS011;51082;38.236;15.432;2022-08-03T02:30:41;1.02;;;0.90;;
64295;SDS011;51082;38.236;15.432;2022-08-03T02:31:45;1.45;;;0.68;;
64295;SDS011;51082;38.236;15.432;2022-08-03T02:32:53;0.70;;;0.70;;
64295;SDS011;51082;38.236;15.432;2022-08-03T02:33:59;1.52;;;0.80;;
64295;SDS011;51082;38.236;15.432;2022-08-03T02:35:05;0.80;;;0.80;;
64295;SDS011;51082;38.236;15.432;2022-08-03T02:36:12;0.90;;;0.70;;
64295;SDS011;51082;38.236;15.432;2022-08-03T02:37:16;0.95;;;0.85;;
64295;SDS011;51082;38.236;15.432;2022-08-03T02:38:20;0.90;;;0.88;;
64295;SDS011;51082;38.236;15.432;2022-08-03T02:39:26;0.93;;;0.70;;
64295;SDS011;51082;38.236;15.432;2022-08-03T02:40:33;0.90;;;0.75;;
64295;SDS011;51082;38.236;15.432;2022-08-03T02:41:36;0.55;;;0.55;;
64295;SDS011;51082;38.236;15.432;2022-08-03T02:42:46;0.68;;;0.65;;
64295;SDS011;51082;38.236;15.432;2022-08-03T02:43:53;1.48;;;1.00;;
64295;SDS011;51082;38.236;15.432;2022-08-03T02:44:57;0.73;;;0.70;;
64295;SDS011;51082;38.236;15.432;2022-08-03T02:46:03;0.90;;;0.90;;
64295;SDS011;51082;38.236;15.432;2022-08-03T02:47:07;5.55;;;0.98;;
64295;SDS011;51082;38.236;15.432;2022-08-03T02:48:14;0.90;;;0.73;;
64295;SDS011;51082;38.236;15.432;2022-08-03T02:49:18;0.82;;;0.73;;
64295;SDS011;51082;38.236;15.432;2022-08-03T02:50:22;0.50;;;0.50;;
64295;SDS011;51082;38.236;15.432;2022-08-03T02:51:25;0.88;;;0.88;;
64295;SDS011;51082;38.236;15.432;2022-08-03T02:52:31;0.60;;;0.60;;
64295;SDS011;51082;38.236;15.432;2022-08-03T02:53:34;1.15;;;0.93;;
64295;SDS011;51082;38.236;15.432;2022-08-03T02:54:38;1.52;;;1.00;;
64295;SDS011;51082;38.236;15.432;2022-08-03T02:55:40;1.48;;;0.82;;
64295;SDS011;51082;38.236;15.432;2022-08-03T02:56:43;0.80;;;0.70;;
64295;SDS011;51082;38.236;15.432;2022-08-03T02:57:46;0.50;;;0.50;;
64295;SDS011;51082;38.236;15.432;2022-08-03T02:58:50;0.80;;;0.80;;
64295;SDS011;51082;38.236;15.432;2022-08-03T02:59:54;1.00;;;0.90;;
64295;SDS011;51082;38.236;15.432;2022-08-03T03:00:58;0.45;;;0.43;;
64295;SDS011;51082;38.236;15.432;2022-08-03T03:02:01;1.40;;;0.90;;
64295;SDS011;51082;38.236;15.432;2022-08-03T03:03:04;0.80;;;0.60;;
64295;SDS011;51082;38.236;15.432;2022-08-03T03:04:08;0.60;;;0.60;;
64295;SDS011;51082;38.236;15.432;2022-08-03T03:05:11;0.63;;;0.60;;
64295;SDS011;51082;38.236;15.432;2022-08-03T03:06:16;0.60;;;0.60;;
64295;SDS011;51082;38.236;15.432;2022-08-03T03:07:19;0.55;;;0.55;;
64295;SDS011;51082;38.236;15.432;2022-08-03T03:08:21;1.10;;;0.82;;
64295;SDS011;51082;38.236;15.432;2022-08-03T03:09:25;0.70;;;0.70;;
64295;SDS011;51082;38.236;15.432;2022-08-03T03:10:28;1.27;;;0.63;;
64295;SDS011;51082;38.236;15.432;2022-08-03T03:11:30;0.77;;;0.75;;
64295;SDS011;51082;38.236;15.432;2022-08-03T03:12:33;1.88;;;1.77;;
64295;SDS011;51082;38.236;15.432;2022-08-03T03:13:37;0.68;;;0.68;;
64295;SDS011;51082;38.236;15.432;2022-08-03T03:14:40;4.35;;;0.60;;
64295;SDS011;51082;38.236;15.432;2022-08-03T03:15:42;0.82;;;0.70;;
64295;SDS011;51082;38.236;15.432;2022-08-03T03:16:46;1.08;;;0.70;;
64295;SDS011;51082;38.236;15.432;2022-08-03T03:17:50;0.73;;;0.70;;
64295;SDS011;51082;38.236;15.432;2022-08-03T03:18:53;0.63;;;0.63;;
64295;SDS011;51082;38.236;15.432;2022-08-03T03:19:57;0.80;;;0.70;;
64295;SDS011;51082;38.236;15.432;2022-08-03T03:21:00;1.05;;;0.98;;
64295;SDS011;51082;38.236;15.432;2022-08-03T03:22:04;1.52;;;1.00;;
64295;SDS011;51082;38.236;15.432;2022-08-03T03:23:08;1.55;;;0.95;;
64295;SDS011;51082;38.236;15.432;2022-08-03T03:24:11;0.80;;;0.80;;
64295;SDS011;51082;38.236;15.432;2022-08-03T03:25:13;0.70;;;0.68;;
64295;SDS011;51082;38.236;15.432;2022-08-03T03:26:17;0.70;;;0.70;;
64295;SDS011;51082;38.236;15.432;2022-08-03T03:27:19;0.80;;;0.70;;
64295;SDS011;51082;38.236;15.432;2022-08-03T03:28:22;0.45;;;0.45;;
64295;SDS011;51082;38.236;15.432;2022-08-03T03:29:24;0.98;;;0.90;;
64295;SDS011;51082;38.236;15.432;2022-08-03T03:30:27;0.98;;;0.68;;
64295;SDS011;51082;38.236;15.432;2022-08-03T03:31:29;0.70;;;0.70;;
64295;SDS011;51082;38.236;15.432;2022-08-03T03:32:32;0.73;;;0.73;;
64295;SDS011;51082;38.236;15.432;2022-08-03T03:33:36;0.95;;;0.73;;
64295;SDS011;51082;38.236;15.432;2022-08-03T03:34:40;0.70;;;0.70;;
64295;SDS011;51082;38.236;15.432;2022-08-03T03:35:43;1.30;;;0.63;;
64295;SDS011;51082;38.236;15.432;2022-08-03T03:36:47;0.52;;;0.52;;
64295;SDS011;51082;38.236;15.432;2022-08-03T03:37:50;0.50;;;0.50;;
64295;SDS011;51082;38.236;15.432;2022-08-03T03:38:52;1.13;;;0.85;;
64295;SDS011;51082;38.236;15.432;2022-08-03T03:39:55;1.00;;;0.68;;
64295;SDS011;51082;38.236;15.432;2022-08-03T03:40:56;0.88;;;0.82;;
64295;SDS011;51082;38.236;15.432;2022-08-03T03:41:59;2.13;;;0.80;;
64295;SDS011;51082;38.236;15.432;2022-08-03T03:43:01;1.23;;;0.93;;
64295;SDS011;51082;38.236;15.432;2022-08-03T03:44:04;0.60;;;0.60;;
64295;SDS011;51082;38.236;15.432;2022-08-03T03:45:06;0.82;;;0.73;;
64295;SDS011;51082;38.236;15.432;2022-08-03T03:46:11;1.67;;;0.52;;
64295;SDS011;51082;38.236;15.432;2022-08-03T03:47:12;0.70;;;0.70;;
64295;SDS011;51082;38.236;15.432;2022-08-03T03:48:15;0.38;;;0.30;;
64295;SDS011;51082;38.236;15.432;2022-08-03T03:49:17;0.88;;;0.88;;
64295;SDS011;51082;38.236;15.432;2022-08-03T03:50:20;0.60;;;0.60;;
64295;SDS011;51082;38.236;15.432;2022-08-03T03:51:24;0.73;;;0.70;;
64295;SDS011;51082;38.236;15.432;2022-08-03T03:52:26;0.85;;;0.85;;
64295;SDS011;51082;38.236;15.432;2022-08-03T03:53:28;0.73;;;0.70;;
64295;SDS011;51082;38.236;15.432;2022-08-03T03:54:38;0.60;;;0.60;;
64295;SDS011;51082;38.236;15.432;2022-08-03T03:55:41;0.82;;;0.60;;
64295;SDS011;51082;38.236;15.432;2022-08-03T03:56:43;0.30;;;0.30;;
64295;SDS011;51082;38.236;15.432;2022-08-03T03:57:45;1.05;;;0.70;;
64295;SDS011;51082;38.236;15.432;2022-08-03T03:58:48;0.68;;;0.57;;
64295;SDS011;51082;38.236;15.432;2022-08-03T03:59:50;0.85;;;0.70;;
64295;SDS011;51082;38.236;15.432;2022-08-03T04:00:53;0.47;;;0.47;;
64295;SDS011;51082;38.236;15.432;2022-08-03T04:01:54;0.68;;;0.63;;
64295;SDS011;51082;38.236;15.432;2022-08-03T04:02:57;0.93;;;0.77;;
64295;SDS011;51082;38.236;15.432;2022-08-03T04:03:59;1.05;;;0.90;;
64295;SDS011;51082;38.236;15.432;2022-08-03T04:05:21;0.82;;;0.60;;
64295;SDS011;51082;38.236;15.432;2022-08-03T04:06:43;0.35;;;0.35;;
64295;SDS011;51082;38.236;15.432;2022-08-03T04:08:16;1.42;;;1.00;;
64295;SDS011;51082;38.236;15.432;2022-08-03T04:09:37;0.38;;;0.35;;
64295;SDS011;51082;38.236;15.432;2022-08-03T04:11:02;0.90;;;0.90;;
64295;SDS011;51082;38.236;15.432;2022-08-03T04:12:10;0.98;;;0.77;;
64295;SDS011;51082;38.236;15.432;2022-08-03T04:13:12;3.83;;;1.10;;
64295;SDS011;51082;38.236;15.432;2022-08-03T04:14:18;1.50;;;0.80;;
64295;SDS011;51082;38.236;15.432;2022-08-03T04:15:26;8.52;;;0.70;;
64295;SDS011;51082;38.236;15.432;2022-08-03T04:16:30;0.68;;;0.68;;
64295;SDS011;51082;38.236;15.432;2022-08-03T04:17:36;0.98;;;0.88;;
64295;SDS011;51082;38.236;15.432;2022-08-03T04:18:39;1.17;;;0.75;;
64295;SDS011;51082;38.236;15.432;2022-08-03T04:19:44;1.95;;;0.77;;
64295;SDS011;51082;38.236;15.432;2022-08-03T04:20:48;0.77;;;0.65;;
64295;SDS011;51082;38.236;15.432;2022-08-03T04:21:55;0.93;;;0.82;;
64295;SDS011;51082;38.236;15.432;2022-08-03T04:23:00;0.70;;;0.70;;
64295;SDS011;51082;38.236;15.432;2022-08-03T04:24:04;1.25;;;1.13;;
64295;SDS011;51082;38.236;15.432;2022-08-03T04:25:09;0.90;;;0.88;;
64295;SDS011;51082;38.236;15.432;2022-08-03T04:26:19;2.63;;;1.08;;
64295;SDS011;51082;38.236;15.432;2022-08-03T04:27:24;0.93;;;0.90;;
64295;SDS011;51082;38.236;15.432;2022-08-03T04:28:30;2.40;;;1.17;;
64295;SDS011;51082;38.236;15.432;2022-08-03T04:29:34;0.70;;;0.70;;
64295;SDS011;51082;38.236;15.432;2022-08-03T04:30:38;1.55;;;0.90;;
64295;SDS011;51082;38.236;15.432;2022-08-03T04:31:47;1.65;;;1.13;;
64295;SDS011;51082;38.236;15.432;2022-08-03T04:32:51;0.82;;;0.75;;
64295;SDS011;51082;38.236;15.432;2022-08-03T04:33:54;0.82;;;0.80;;
64295;SDS011;51082;38.236;15.432;2022-08-03T04:34:57;0.82;;;0.82;;
64295;SDS011;51082;38.236;15.432;2022-08-03T04:36:00;0.88;;;0.80;;
64295;SDS011;51082;38.236;15.432;2022-08-03T04:37:07;1.10;;;0.93;;
64295;SDS011;51082;38.236;15.432;2022-08-03T04:38:13;0.70;;;0.70;;
64295;SDS011;51082;38.236;15.432;2022-08-03T04:39:19;2.25;;;1.10;;
64295;SDS011;51082;38.236;15.432;2022-08-03T04:40:32;5.10;;;1.02;;
64295;SDS011;51082;38.236;15.432;2022-08-03T04:41:35;1.25;;;1.15;;
64295;SDS011;51082;38.236;15.432;2022-08-03T04:42:39;1.13;;;0.90;;
64295;SDS011;51082;38.236;15.432;2022-08-03T04:43:42;1.85;;;1.20;;
64295;SDS011;51082;38.236;15.432;2022-08-03T04:44:46;1.10;;;0.73;;
64295;SDS011;51082;38.236;15.432;2022-08-03T04:45:48;3.53;;;1.08;;
64295;SDS011;51082;38.236;15.432;2022-08-03T04:46:53;0.80;;;0.70;;
64295;SDS011;51082;38.236;15.432;2022-08-03T04:47:55;0.40;;;0.40;;
64295;SDS011;51082;38.236;15.432;2022-08-03T04:48:59;4.07;;;1.35;;
64295;SDS011;51082;38.236;15.432;2022-08-03T04:50:01;0.90;;;0.90;;
64295;SDS011;51082;38.236;15.432;2022-08-03T04:51:05;4.60;;;0.77;;
64295;SDS011;51082;38.236;15.432;2022-08-03T04:52:09;1.15;;;1.05;;
64295;SDS011;51082;38.236;15.432;2022-08-03T04:53:12;0.70;;;0.70;;
64295;SDS011;51082;38.236;15.432;2022-08-03T04:54:13;5.90;;;1.10;;
64295;SDS011;51082;38.236;15.432;2022-08-03T04:55:24;0.70;;;0.70;;
64295;SDS011;51082;38.236;15.432;2022-08-03T04:56:26;1.00;;;0.63;;
64295;SDS011;51082;38.236;15.432;2022-08-03T04:57:29;1.17;;;0.60;;
64295;SDS011;51082;38.236;15.432;2022-08-03T04:58:30;0.65;;;0.65;;
64295;SDS011;51082;38.236;15.432;2022-08-03T04:59:33;0.60;;;0.60;;
64295;SDS011;51082;38.236;15.432;2022-08-03T05:00:35;1.17;;;0.90;;
64295;SDS011;51082;38.236;15.432;2022-08-03T05:01:38;0.95;;;0.75;;
64295;SDS011;51082;38.236;15.432;2022-08-03T05:02:40;1.30;;;1.20;;
64295;SDS011;51082;38.236;15.432;2022-08-03T05:03:43;2.33;;;1.42;;
64295;SDS011;51082;38.236;15.432;2022-08-03T05:04:44;2.75;;;1.50;;
64295;SDS011;51082;38.236;15.432;2022-08-03T05:05:47;2.47;;;1.90;;
64295;SDS011;51082;38.236;15.432;2022-08-03T05:06:49;3.65;;;1.60;;
64295;SDS011;51082;38.236;15.432;2022-08-03T05:07:53;1.25;;;1.15;;
64295;SDS011;51082;38.236;15.432;2022-08-03T05:08:55;1.08;;;0.90;;
64295;SDS011;51082;38.236;15.432;2022-08-03T05:09:58;5.57;;;1.60;;
64295;SDS011;51082;38.236;15.432;2022-08-03T05:11:00;7.07;;;1.50;;
64295;SDS011;51082;38.236;15.432;2022-08-03T05:12:03;2.03;;;1.60;;
64295;SDS011;51082;38.236;15.432;2022-08-03T05:13:05;5.38;;;1.80;;
64295;SDS011;51082;38.236;15.432;2022-08-03T05:14:11;3.08;;;1.52;;
64295;SDS011;51082;38.236;15.432;2022-08-03T05:15:13;4.15;;;1.85;;
64295;SDS011;51082;38.236;15.432;2022-08-03T05:16:16;1.73;;;1.63;;
64295;SDS011;51082;38.236;15.432;2022-08-03T05:17:17;3.33;;;2.30;;
64295;SDS011;51082;38.236;15.432;2022-08-03T05:18:20;4.28;;;2.33;;
64295;SDS011;51082;38.236;15.432;2022-08-03T05:19:22;2.15;;;1.75;;
64295;SDS011;51082;38.236;15.432;2022-08-03T05:20:24;3.33;;;2.35;;
64295;SDS011;51082;38.236;15.432;2022-08-03T05:21:26;3.22;;;1.55;;
64295;SDS011;51082;38.236;15.432;2022-08-03T05:22:29;2.00;;;1.75;;
64295;SDS011;51082;38.236;15.432;2022-08-03T05:23:32;3.65;;;2.00;;
64295;SDS011;51082;38.236;15.432;2022-08-03T05:24:35;4.45;;;1.92;;
64295;SDS011;51082;38.236;15.432;2022-08-03T05:25:38;2.28;;;1.73;;
64295;SDS011;51082;38.236;15.432;2022-08-03T05:26:39;1.83;;;1.67;;
64295;SDS011;51082;38.236;15.432;2022-08-03T05:27:42;5.07;;;2.03;;
64295;SDS011;51082;38.236;15.432;2022-08-03T05:28:44;2.28;;;1.67;;
64295;SDS011;51082;38.236;15.432;2022-08-03T05:29:47;2.17;;;1.58;;
64295;SDS011;51082;38.236;15.432;2022-08-03T05:30:49;4.55;;;1.70;;
64295;SDS011;51082;38.236;15.432;2022-08-03T05:31:52;1.98;;;1.58;;
64295;SDS011;51082;38.236;15.432;2022-08-03T05:32:53;5.50;;;2.17;;
64295;SDS011;51082;38.236;15.432;2022-08-03T05:33:56;2.55;;;1.13;;
64295;SDS011;51082;38.236;15.432;2022-08-03T05:34:59;2.47;;;1.60;;
64295;SDS011;51082;38.236;15.432;2022-08-03T05:36:00;3.17;;;1.50;;
64295;SDS011;51082;38.236;15.432;2022-08-03T05:37:03;3.40;;;1.45;;
64295;SDS011;51082;38.236;15.432;2022-08-03T05:38:05;3.35;;;1.73;;
64295;SDS011;51082;38.236;15.432;2022-08-03T05:39:10;2.40;;;1.80;;
64295;SDS011;51082;38.236;15.432;2022-08-03T05:40:11;1.98;;;1.45;;
64295;SDS011;51082;38.236;15.432;2022-08-03T05:41:14;2.38;;;1.42;;
64295;SDS011;51082;38.236;15.432;2022-08-03T05:42:16;4.32;;;1.75;;
64295;SDS011;51082;38.236;15.432;2022-08-03T05:43:18;1.35;;;1.25;;
64295;SDS011;51082;38.236;15.432;2022-08-03T05:44:20;2.33;;;1.50;;
64295;SDS011;51082;38.236;15.432;2022-08-03T05:45:25;3.28;;;1.50;;
64295;SDS011;51082;38.236;15.432;2022-08-03T05:46:26;2.78;;;1.65;;
64295;SDS011;51082;38.236;15.432;2022-08-03T05:47:29;1.77;;;1.35;;
64295;SDS011;51082;38.236;15.432;2022-08-03T05:48:31;2.50;;;1.63;;
64295;SDS011;51082;38.236;15.432;2022-08-03T05:49:33;3.00;;;1.20;;
64295;SDS011;51082;38.236;15.432;2022-08-03T05:50:36;1.13;;;1.02;;
64295;SDS011;51082;38.236;15.432;2022-08-03T05:51:37;1.77;;;0.98;;
64295;SDS011;51082;38.236;15.432;2022-08-03T05:52:40;1.60;;;1.00;;
64295;SDS011;51082;38.236;15.432;2022-08-03T05:53:43;3.83;;;1.00;;
64295;SDS011;51082;38.236;15.432;2022-08-03T05:54:47;1.35;;;1.25;;
64295;SDS011;51082;38.236;15.432;2022-08-03T05:55:49;1.30;;;1.20;;
64295;SDS011;51082;38.236;15.432;2022-08-03T05:56:51;1.10;;;0.95;;
64295;SDS011;51082;38.236;15.432;2022-08-03T05:57:53;1.33;;;1.10;;
64295;SDS011;51082;38.236;15.432;2022-08-03T05:58:56;1.25;;;1.15;;
64295;SDS011;51082;38.236;15.432;2022-08-03T05:59:57;2.33;;;1.17;;
64295;SDS011;51082;38.236;15.432;2022-08-03T06:01:00;1.20;;;1.00;;
64295;SDS011;51082;38.236;15.432;2022-08-03T06:02:02;1.65;;;1.02;;
64295;SDS011;51082;38.236;15.432;2022-08-03T06:03:05;0.77;;;0.77;;
64295;SDS011;51082;38.236;15.432;2022-08-03T06:04:06;1.00;;;0.90;;
64295;SDS011;51082;38.236;15.432;2022-08-03T06:05:09;1.67;;;1.25;;
64295;SDS011;51082;38.236;15.432;2022-08-03T06:06:11;0.75;;;0.70;;
64295;SDS011;51082;38.236;15.432;2022-08-03T06:07:13;5.20;;;1.73;;
64295;SDS011;51082;38.236;15.432;2022-08-03T06:08:15;1.70;;;1.10;;
64295;SDS011;51082;38.236;15.432;2022-08-03T06:09:17;3.08;;;1.02;;
64295;SDS011;51082;38.236;15.432;2022-08-03T06:10:21;1.23;;;1.13;;
64295;SDS011;51082;38.236;15.432;2022-08-03T06:11:23;0.85;;;0.80;;
64295;SDS011;51082;38.236;15.432;2022-08-03T06:12:25;2.70;;;1.10;;
64295;SDS011;51082;38.236;15.432;2022-08-03T06:13:27;1.33;;;0.90;;
64295;SDS011;51082;38.236;15.432;2022-08-03T06:14:30;1.23;;;0.90;;
64295;SDS011;51082;38.236;15.432;2022-08-03T06:15:32;2.03;;;0.82;;
64295;SDS011;51082;38.236;15.432;2022-08-03T06:16:35;1.02;;;0.82;;
64295;SDS011;51082;38.236;15.432;2022-08-03T06:17:43;0.95;;;0.93;;
64295;SDS011;51082;38.236;15.432;2022-08-03T06:18:46;5.25;;;0.93;;
64295;SDS011;51082;38.236;15.432;2022-08-03T06:19:50;0.70;;;0.70;;
64295;SDS011;51082;38.236;15.432;2022-08-03T06:20:53;1.17;;;0.88;;
64295;SDS011;51082;38.236;15.432;2022-08-03T06:21:56;1.10;;;1.00;;